createdAt,value
2023-01-26T00:01:45.020Z,6.50
2023-01-26T00:04:13.071Z,6.60
2023-01-26T00:06:41.096Z,6.70
2023-01-26T00:09:14.551Z,6.77
2023-01-26T00:11:42.619Z,6.84
2023-01-26T00:14:10.536Z,6.84
2023-01-26T00:16:39.500Z,6.40
2023-01-26T00:19:07.661Z,5.82
2023-01-26T00:21:35.570Z,5.37
2023-01-26T00:24:04.837Z,5.03
2023-01-26T00:26:32.855Z,4.77
2023-01-26T00:29:01.613Z,4.54
2023-01-26T00:31:29.639Z,4.41
2023-01-26T00:33:57.762Z,4.79
2023-01-26T00:36:25.981Z,5.23
2023-01-26T00:38:54.183Z,5.55
2023-01-26T00:41:40.753Z,5.78
2023-01-26T00:44:10.259Z,5.98
2023-01-26T00:46:38.425Z,6.15
2023-01-26T00:49:08.154Z,6.28
2023-01-26T00:51:36.104Z,6.39
2023-01-26T00:54:05.468Z,6.49
2023-01-26T00:56:33.396Z,6.58
2023-01-26T00:59:01.359Z,6.66
2023-01-26T01:01:29.242Z,6.75
2023-01-26T01:03:57.208Z,6.83
2023-01-26T01:06:25.164Z,6.89
2023-01-26T01:08:52.950Z,6.96
2023-01-26T01:11:20.974Z,6.93
2023-01-26T01:13:48.814Z,6.46
2023-01-26T01:16:17.480Z,5.90
2023-01-26T01:18:46.409Z,5.44
2023-01-26T01:21:17.195Z,5.11
2023-01-26T01:23:45.139Z,4.83
2023-01-26T01:26:14.099Z,4.60
2023-01-26T01:28:43.571Z,4.47
2023-01-26T01:31:15.194Z,4.84
2023-01-26T01:33:43.668Z,5.31
2023-01-26T01:36:14.711Z,5.65
2023-01-26T01:38:44.947Z,5.92
2023-01-26T01:41:15.304Z,6.09
2023-01-26T01:43:43.873Z,6.25
2023-01-26T01:46:17.896Z,6.39
2023-01-26T01:48:56.573Z,6.51
2023-01-26T01:51:53.923Z,6.62
2023-01-26T01:54:32.497Z,6.72
2023-01-26T01:57:05.226Z,6.81
2023-01-26T01:59:33.805Z,6.88
2023-01-26T02:02:01.793Z,6.96
2023-01-26T02:04:29.795Z,7.01
2023-01-26T02:07:00.797Z,6.97
2023-01-26T02:09:54.542Z,6.48
2023-01-26T02:12:27.747Z,5.82
2023-01-26T02:14:57.871Z,5.38
2023-01-26T02:17:27.352Z,5.05
2023-01-26T02:20:16.332Z,4.78
2023-01-26T02:22:58.126Z,4.63
2023-01-26T02:25:47.533Z,5.06
2023-01-26T02:28:16.911Z,5.54
2023-01-26T02:30:46.570Z,5.84
2023-01-26T02:33:24.446Z,6.06
2023-01-26T02:35:53.515Z,6.25
2023-01-26T02:38:24.537Z,6.39
2023-01-26T02:41:02.620Z,6.50
2023-01-26T02:43:30.745Z,6.59
2023-01-26T02:45:59.720Z,6.68
2023-01-26T02:48:48.074Z,6.76
2023-01-26T02:51:16.861Z,6.85
2023-01-26T02:53:45.021Z,6.92
2023-01-26T02:56:13.092Z,7.00
2023-01-26T02:58:41.295Z,7.06
2023-01-26T03:01:09.179Z,7.04
2023-01-26T03:03:47.746Z,6.53
2023-01-26T03:06:15.984Z,5.96
2023-01-26T03:08:43.854Z,5.51
2023-01-26T03:11:11.973Z,5.15
2023-01-26T03:13:40.981Z,4.87
2023-01-26T03:16:10.436Z,4.69
2023-01-26T03:18:57.434Z,5.01
2023-01-26T03:21:45.102Z,5.50
2023-01-26T03:24:34.268Z,5.87
2023-01-26T03:27:23.653Z,6.13
2023-01-26T03:29:51.887Z,6.31
2023-01-26T03:32:19.786Z,6.46
2023-01-26T03:34:48.366Z,6.57
2023-01-26T03:37:16.394Z,6.68
2023-01-26T03:40:12.312Z,6.78
2023-01-26T03:42:59.390Z,6.87
2023-01-26T03:45:47.242Z,6.94
2023-01-26T03:48:33.893Z,7.01
2023-01-26T03:51:21.448Z,7.06
2023-01-26T03:54:07.781Z,7.11
2023-01-26T03:56:35.914Z,7.06
2023-01-26T03:59:12.501Z,6.53
2023-01-26T04:02:02.950Z,5.96
2023-01-26T04:04:50.236Z,5.46
2023-01-26T04:07:41.557Z,5.07
2023-01-26T04:10:10.525Z,4.77
2023-01-26T04:12:38.687Z,4.60
2023-01-26T04:15:35.167Z,4.96
2023-01-26T04:18:26.959Z,5.45
2023-01-26T04:21:14.479Z,5.81
2023-01-26T04:23:44.592Z,6.05
2023-01-26T04:26:12.697Z,6.23
2023-01-26T04:28:40.855Z,6.37
2023-01-26T04:31:09.270Z,6.48
2023-01-26T04:33:38.618Z,6.58
2023-01-26T04:36:08.371Z,6.68
2023-01-26T04:38:38.860Z,6.76
2023-01-26T04:41:06.852Z,6.84
2023-01-26T04:43:41.038Z,6.91
2023-01-26T04:46:09.306Z,6.96
2023-01-26T04:48:39.694Z,7.02
2023-01-26T04:51:17.235Z,7.06
2023-01-26T04:53:45.188Z,6.99
2023-01-26T04:56:34.601Z,6.47
2023-01-26T04:59:06.735Z,5.84
2023-01-26T05:01:36.701Z,5.39
2023-01-26T05:04:08.696Z,5.05
2023-01-26T05:06:40.689Z,4.77
2023-01-26T05:09:09.577Z,4.62
2023-01-26T05:11:39.014Z,4.97
2023-01-26T05:14:16.083Z,5.44
2023-01-26T05:17:09.812Z,5.76
2023-01-26T05:19:49.935Z,6.03
2023-01-26T05:22:20.664Z,6.22
2023-01-26T05:25:08.037Z,6.36
2023-01-26T05:27:47.846Z,6.46
2023-01-26T05:30:16.807Z,6.55
2023-01-26T05:32:45.177Z,6.63
2023-01-26T05:35:13.737Z,6.72
2023-01-26T05:37:42.639Z,6.79
2023-01-26T05:40:12.817Z,6.85
2023-01-26T05:42:42.862Z,6.90
2023-01-26T05:45:21.879Z,6.95
2023-01-26T05:47:52.007Z,7.00
2023-01-26T05:50:20.083Z,7.04
2023-01-26T05:53:08.064Z,6.97
2023-01-26T05:55:37.428Z,6.46
2023-01-26T05:58:05.464Z,5.90
2023-01-26T06:00:34.523Z,5.45
2023-01-26T06:03:07.398Z,5.08
2023-01-26T06:05:36.259Z,4.80
2023-01-26T06:08:10.153Z,4.64
2023-01-26T06:10:51.431Z,5.00
2023-01-26T06:13:26.042Z,5.43
2023-01-26T06:16:02.922Z,5.74
2023-01-26T06:18:31.948Z,5.96
2023-01-26T06:21:01.479Z,6.12
2023-01-26T06:23:30.207Z,6.26
2023-01-26T06:26:02.580Z,6.39
2023-01-26T06:28:31.640Z,6.48
2023-01-26T06:31:04.766Z,6.56
2023-01-26T06:33:35.504Z,6.64
2023-01-26T06:36:11.443Z,6.71
2023-01-26T06:38:45.447Z,6.77
2023-01-26T06:41:13.989Z,6.85
2023-01-26T06:43:46.661Z,6.92
2023-01-26T06:46:16.163Z,6.86
2023-01-26T06:48:45.867Z,6.35
2023-01-26T06:51:16.815Z,5.76
2023-01-26T06:53:56.653Z,5.31
2023-01-26T06:56:39.257Z,4.92
2023-01-26T06:59:22.804Z,4.66
2023-01-26T07:02:20.873Z,4.54
2023-01-26T07:04:50.207Z,4.97
2023-01-26T07:07:18.136Z,5.41
2023-01-26T07:09:46.066Z,5.76
2023-01-26T07:12:14.925Z,6.00
2023-01-26T07:14:42.766Z,6.19
2023-01-26T07:17:10.606Z,6.34
2023-01-26T07:19:38.641Z,6.46
2023-01-26T07:22:06.457Z,6.57
2023-01-26T07:24:34.295Z,6.68
2023-01-26T07:27:02.116Z,6.79
2023-01-26T07:29:30.058Z,6.83
2023-01-26T07:31:58.044Z,6.41
2023-01-26T07:34:26.008Z,5.88
2023-01-26T07:36:53.827Z,5.47
2023-01-26T07:39:21.640Z,5.16
2023-01-26T07:41:50.207Z,4.91
2023-01-26T07:44:47.290Z,4.66
2023-01-26T07:47:15.737Z,4.56
2023-01-26T07:49:43.546Z,4.96
2023-01-26T07:52:11.622Z,5.46
2023-01-26T07:54:40.047Z,5.86
2023-01-26T07:57:09.184Z,6.16
2023-01-26T07:59:37.110Z,6.41
2023-01-26T08:02:04.928Z,6.60
2023-01-26T08:04:32.849Z,6.76
2023-01-26T08:07:01.296Z,6.83
2023-01-26T08:09:29.323Z,6.44
2023-01-26T08:11:58.950Z,5.92
2023-01-26T08:14:35.436Z,5.51
2023-01-26T08:17:09.863Z,5.18
2023-01-26T08:19:38.525Z,4.93
2023-01-26T08:22:06.418Z,4.74
2023-01-26T08:24:34.345Z,4.59
2023-01-26T08:27:02.167Z,4.54
2023-01-26T08:29:30.199Z,4.94
2023-01-26T08:31:58.080Z,5.46
2023-01-26T08:34:26.801Z,5.87
2023-01-26T08:36:54.604Z,6.20
2023-01-26T08:39:22.386Z,6.46
2023-01-26T08:41:50.170Z,6.67
2023-01-26T08:44:18.062Z,6.79
2023-01-26T08:46:46.300Z,6.45
2023-01-26T08:49:14.434Z,5.97
2023-01-26T08:51:42.468Z,5.60
2023-01-26T08:54:10.294Z,5.31
2023-01-26T08:56:38.113Z,5.10
2023-01-26T08:59:06.012Z,4.92
2023-01-26T09:01:33.752Z,4.86
2023-01-26T09:04:03.144Z,5.28
2023-01-26T09:06:33.279Z,5.79
2023-01-26T09:09:01.232Z,6.19
2023-01-26T09:11:29.056Z,6.45
2023-01-26T09:13:56.892Z,6.68
2023-01-26T09:16:25.715Z,6.83
2023-01-26T09:18:54.387Z,6.50
2023-01-26T09:21:24.138Z,6.01
2023-01-26T09:23:52.165Z,5.63
2023-01-26T09:26:20.140Z,5.38
2023-01-26T09:28:53.238Z,5.21
2023-01-26T09:31:21.339Z,5.06
2023-01-26T09:33:50.964Z,4.93
2023-01-26T09:36:19.258Z,4.84
2023-01-26T09:38:47.193Z,4.76
2023-01-26T09:41:20.736Z,4.69
2023-01-26T09:43:54.930Z,4.73
2023-01-26T09:46:27.928Z,5.29
2023-01-26T09:49:21.822Z,5.89
2023-01-26T09:52:00.894Z,6.41
2023-01-26T09:54:49.520Z,6.77
2023-01-26T09:57:23.382Z,7.08
2023-01-26T10:00:08.275Z,7.21
2023-01-26T10:02:49.521Z,6.82
2023-01-26T10:05:32.185Z,6.35
2023-01-26T10:08:11.765Z,5.94
2023-01-26T10:10:45.845Z,5.65
2023-01-26T10:13:15.894Z,5.44
2023-01-26T10:15:48.687Z,5.27
2023-01-26T10:18:21.332Z,5.13
2023-01-26T10:20:52.229Z,5.00
2023-01-26T10:23:32.254Z,4.91
2023-01-26T10:26:17.660Z,4.84
2023-01-26T10:28:48.157Z,4.90
2023-01-26T10:31:32.694Z,5.44
2023-01-26T10:34:17.908Z,6.05
2023-01-26T10:36:47.472Z,6.48
2023-01-26T10:39:18.111Z,6.80
2023-01-26T10:42:03.594Z,6.99
2023-01-26T10:44:37.983Z,6.64
2023-01-26T10:47:17.510Z,6.23
2023-01-26T10:49:45.980Z,5.92
2023-01-26T10:52:18.719Z,5.72
2023-01-26T10:54:46.728Z,5.57
2023-01-26T10:57:17.020Z,5.44
2023-01-26T11:00:00.138Z,5.32
2023-01-26T11:02:30.888Z,5.27
2023-01-26T11:05:05.161Z,5.24
2023-01-26T11:07:40.724Z,5.24
2023-01-26T11:10:33.644Z,5.26
2023-01-26T11:13:17.759Z,5.39
2023-01-26T11:16:00.292Z,6.06
2023-01-26T11:18:42.886Z,6.68
2023-01-26T11:21:20.823Z,7.04
2023-01-26T11:23:57.845Z,6.76
2023-01-26T11:26:54.866Z,6.35
2023-01-26T11:29:51.094Z,6.02
2023-01-26T11:32:46.625Z,5.80
2023-01-26T11:35:29.697Z,5.64
2023-01-26T11:38:20.128Z,5.52
2023-01-26T11:41:06.120Z,5.44
2023-01-26T11:43:47.720Z,5.37
2023-01-26T11:46:21.524Z,5.32
2023-01-26T11:48:52.297Z,5.27
2023-01-26T11:51:45.315Z,5.23
2023-01-26T11:54:36.333Z,5.21
2023-01-26T11:57:27.888Z,5.15
2023-01-26T12:00:02.142Z,5.09
2023-01-26T12:02:43.684Z,5.16
2023-01-26T12:05:22.321Z,5.71
2023-01-26T12:08:05.220Z,6.34
2023-01-26T12:10:42.128Z,6.80
2023-01-26T12:13:23.257Z,7.15
2023-01-26T12:15:56.929Z,7.31
2023-01-26T12:18:50.669Z,6.94
2023-01-26T12:21:22.742Z,6.49
2023-01-26T12:24:02.357Z,6.21
2023-01-26T12:26:42.578Z,6.00
2023-01-26T12:29:26.447Z,5.85
2023-01-26T12:32:10.801Z,5.69
2023-01-26T12:34:39.152Z,5.54
2023-01-26T12:37:25.863Z,5.41
2023-01-26T12:40:20.390Z,5.29
2023-01-26T12:42:51.437Z,5.19
2023-01-26T12:45:32.655Z,5.13
2023-01-26T12:48:13.988Z,5.07
2023-01-26T12:51:08.967Z,5.01
2023-01-26T12:53:43.556Z,4.94
2023-01-26T12:56:25.965Z,4.90
2023-01-26T12:58:55.515Z,4.83
2023-01-26T13:01:29.084Z,4.78
2023-01-26T13:04:00.146Z,4.76
2023-01-26T13:06:29.607Z,4.72
2023-01-26T13:08:57.336Z,4.66
2023-01-26T13:11:50.014Z,4.62
2023-01-26T13:14:42.500Z,4.58
2023-01-26T13:17:16.486Z,4.56
2023-01-26T13:19:44.407Z,4.53
2023-01-26T13:22:18.451Z,4.58
2023-01-26T13:24:56.182Z,5.14
2023-01-26T13:27:39.623Z,5.77
2023-01-26T13:30:26.179Z,6.26
2023-01-26T13:32:58.199Z,6.61
2023-01-26T13:35:27.005Z,6.82
2023-01-26T13:38:15.707Z,6.97
2023-01-26T13:40:50.491Z,6.59
2023-01-26T13:43:40.426Z,6.14
2023-01-26T13:46:14.272Z,5.75
2023-01-26T13:48:52.645Z,5.46
2023-01-26T13:51:27.398Z,5.23
2023-01-26T13:54:04.532Z,5.08
2023-01-26T13:56:35.323Z,4.96
2023-01-26T13:59:09.607Z,4.85
2023-01-26T14:01:49.207Z,4.75
2023-01-26T14:04:35.462Z,4.66
2023-01-26T14:07:15.734Z,4.56
2023-01-26T14:09:48.754Z,4.49
2023-01-26T14:12:23.946Z,4.42
2023-01-26T14:14:56.695Z,4.36
2023-01-26T14:17:26.625Z,4.30
2023-01-26T14:19:54.980Z,4.24
2023-01-26T14:22:23.148Z,4.19
2023-01-26T14:24:52.997Z,4.15
2023-01-26T14:27:42.529Z,4.11
2023-01-26T14:30:30.849Z,4.06
2023-01-26T14:33:24.915Z,4.02
2023-01-26T14:35:59.069Z,4.13
2023-01-26T14:38:29.381Z,4.74
2023-01-26T14:41:00.659Z,5.32
2023-01-26T14:43:28.554Z,5.77
2023-01-26T14:46:13.147Z,6.11
2023-01-26T14:48:47.013Z,6.30
2023-01-26T14:51:24.465Z,5.94
2023-01-26T14:54:01.306Z,5.50
2023-01-26T14:56:40.681Z,5.19
2023-01-26T14:59:14.976Z,4.95
2023-01-26T15:01:42.915Z,4.76
2023-01-26T15:04:26.142Z,4.58
2023-01-26T15:06:53.974Z,4.42
2023-01-26T15:09:26.651Z,4.28
2023-01-26T15:12:16.340Z,4.16
2023-01-26T15:14:49.241Z,4.04
2023-01-26T15:17:40.952Z,3.94
2023-01-26T15:20:14.937Z,3.86
2023-01-26T15:22:50.077Z,3.79
2023-01-26T15:25:23.425Z,3.71
2023-01-26T15:27:57.455Z,3.65
2023-01-26T15:30:28.046Z,3.59
2023-01-26T15:32:56.419Z,3.61
2023-01-26T15:35:29.763Z,4.14
2023-01-26T15:38:13.040Z,4.76
2023-01-26T15:40:40.923Z,5.24
2023-01-26T15:43:13.655Z,5.58
2023-01-26T15:45:50.862Z,5.85
2023-01-26T15:48:19.713Z,6.10
2023-01-26T15:50:48.548Z,6.23
2023-01-26T15:53:22.047Z,5.87
2023-01-26T15:55:56.114Z,5.40
2023-01-26T15:58:25.915Z,5.04
2023-01-26T16:00:53.935Z,4.78
2023-01-26T16:03:22.670Z,4.56
2023-01-26T16:05:50.895Z,4.35
2023-01-26T16:08:19.445Z,4.17
2023-01-26T16:10:47.891Z,4.02
2023-01-26T16:13:18.315Z,3.88
2023-01-26T16:15:49.553Z,3.75
2023-01-26T16:18:17.810Z,3.65
2023-01-26T16:20:47.883Z,3.56
2023-01-26T16:23:24.827Z,3.48
2023-01-26T16:25:53.137Z,3.51
2023-01-26T16:28:22.881Z,4.09
2023-01-26T16:30:51.338Z,4.66
2023-01-26T16:33:24.632Z,5.09
2023-01-26T16:35:53.353Z,5.42
2023-01-26T16:38:21.183Z,5.69
2023-01-26T16:40:49.742Z,5.92
2023-01-26T16:43:24.227Z,6.03
2023-01-26T16:45:52.969Z,5.64
2023-01-26T16:48:22.753Z,5.18
2023-01-26T16:50:53.967Z,4.83
2023-01-26T16:53:29.373Z,4.59
2023-01-26T16:55:57.222Z,4.38
2023-01-26T16:58:26.729Z,4.21
2023-01-26T17:00:55.563Z,4.07
2023-01-26T17:03:24.322Z,3.94
2023-01-26T17:05:52.529Z,3.82
2023-01-26T17:08:20.368Z,3.73
2023-01-26T17:11:01.066Z,3.63
2023-01-26T17:13:31.652Z,3.54
2023-01-26T17:15:59.633Z,3.46
2023-01-26T17:18:27.821Z,3.47
2023-01-26T17:21:02.803Z,4.07
2023-01-26T17:23:31.538Z,4.81
2023-01-26T17:26:00.571Z,5.37
2023-01-26T17:28:28.710Z,5.78
2023-01-26T17:30:58.357Z,6.11
2023-01-26T17:33:28.758Z,6.29
2023-01-26T17:36:05.180Z,5.88
2023-01-26T17:38:33.560Z,5.32
2023-01-26T17:41:01.438Z,4.94
2023-01-26T17:43:29.758Z,4.65
2023-01-26T17:46:08.516Z,4.44
2023-01-26T17:48:40.258Z,4.24
2023-01-26T17:51:10.258Z,4.10
2023-01-26T17:53:40.101Z,3.95
2023-01-26T17:56:10.360Z,3.82
2023-01-26T17:58:39.012Z,3.71
2023-01-26T18:01:09.818Z,3.60
2023-01-26T18:03:41.810Z,3.51
2023-01-26T18:06:10.737Z,3.43
2023-01-26T18:08:39.729Z,3.43
2023-01-26T18:11:11.502Z,4.01
2023-01-26T18:13:40.771Z,4.64
2023-01-26T18:16:14.130Z,5.04
2023-01-26T18:18:46.044Z,5.34
2023-01-26T18:21:22.801Z,5.57
2023-01-26T18:23:54.167Z,5.69
2023-01-26T18:26:25.575Z,5.31
2023-01-26T18:28:54.821Z,4.86
2023-01-26T18:31:24.652Z,4.52
2023-01-26T18:33:54.933Z,4.28
2023-01-26T18:36:23.726Z,4.08
2023-01-26T18:38:54.908Z,3.92
2023-01-26T18:41:25.129Z,3.79
2023-01-26T18:44:00.147Z,3.67
2023-01-26T18:46:31.785Z,3.57
2023-01-26T18:49:01.111Z,3.48
2023-01-26T18:51:32.432Z,3.39
2023-01-26T18:54:04.176Z,3.30
2023-01-26T18:56:34.427Z,3.30
2023-01-26T18:59:03.114Z,3.88
2023-01-26T19:01:32.293Z,4.49
2023-01-26T19:04:05.969Z,4.91
2023-01-26T19:06:36.538Z,5.24
2023-01-26T19:09:07.799Z,5.49
2023-01-26T19:11:38.295Z,5.72
2023-01-26T19:14:08.208Z,5.85
2023-01-26T19:16:36.929Z,5.48
2023-01-26T19:19:05.334Z,5.01
2023-01-26T19:21:34.156Z,4.67
2023-01-26T19:24:05.804Z,4.40
2023-01-26T19:26:34.488Z,4.18
2023-01-26T19:29:04.110Z,4.01
2023-01-26T19:31:33.068Z,3.86
2023-01-26T19:34:03.858Z,3.73
2023-01-26T19:36:34.172Z,3.60
2023-01-26T19:39:03.754Z,3.49
2023-01-26T19:41:32.040Z,3.39
2023-01-26T19:44:00.972Z,3.30
2023-01-26T19:46:28.936Z,3.21
2023-01-26T19:48:56.774Z,3.14
2023-01-26T19:51:27.276Z,3.07
2023-01-26T19:53:59.077Z,3.33
2023-01-26T19:56:30.634Z,4.60
2023-01-26T19:59:01.461Z,5.10
2023-01-26T20:01:31.191Z,5.34
2023-01-26T20:04:02.483Z,5.53
2023-01-26T20:06:32.942Z,5.73
2023-01-26T20:09:01.200Z,5.82
2023-01-26T20:11:29.851Z,5.44
2023-01-26T20:14:00.088Z,4.97
2023-01-26T20:16:29.386Z,4.60
2023-01-26T20:18:59.253Z,4.34
2023-01-26T20:21:28.734Z,4.12
2023-01-26T20:24:06.290Z,3.95
2023-01-26T20:26:35.636Z,3.80
2023-01-26T20:29:04.484Z,3.65
2023-01-26T20:31:33.223Z,3.53
2023-01-26T20:34:02.316Z,3.40
2023-01-26T20:36:31.595Z,3.29
2023-01-26T20:38:59.552Z,3.21
2023-01-26T20:41:29.881Z,3.12
2023-01-26T20:44:01.831Z,3.03
2023-01-26T20:46:36.580Z,3.05
2023-01-26T20:49:05.998Z,3.67
2023-01-26T20:51:36.019Z,4.37
2023-01-26T20:54:08.826Z,4.82
2023-01-26T20:56:38.314Z,5.10
2023-01-26T20:59:08.117Z,5.38
2023-01-26T21:01:36.630Z,5.64
2023-01-26T21:04:05.909Z,5.74
2023-01-26T21:06:34.306Z,5.34
2023-01-26T21:09:03.052Z,4.87
2023-01-26T21:11:31.535Z,4.50
2023-01-26T21:14:01.801Z,4.24
2023-01-26T21:16:31.906Z,4.03
2023-01-26T21:19:00.136Z,3.85
2023-01-26T21:21:28.311Z,3.69
2023-01-26T21:23:56.572Z,3.56
2023-01-26T21:26:26.049Z,3.43
2023-01-26T21:28:56.391Z,3.32
2023-01-26T21:31:26.232Z,3.22
2023-01-26T21:33:54.959Z,3.13
2023-01-26T21:36:26.331Z,3.04
2023-01-26T21:38:56.195Z,2.96
2023-01-26T21:41:46.712Z,2.99
2023-01-26T21:44:17.760Z,3.70
2023-01-26T21:46:47.034Z,4.30
2023-01-26T21:49:16.113Z,4.69
2023-01-26T21:52:02.837Z,4.97
2023-01-26T21:54:31.933Z,5.23
2023-01-26T21:57:00.853Z,5.43
2023-01-26T21:59:29.416Z,5.55
2023-01-26T22:01:58.398Z,5.19
2023-01-26T22:04:30.635Z,4.72
2023-01-26T22:06:58.548Z,4.34
2023-01-26T22:09:26.574Z,4.08
2023-01-26T22:11:54.392Z,3.87
2023-01-26T22:14:27.258Z,3.70
2023-01-26T22:16:55.207Z,3.54
2023-01-26T22:19:23.070Z,3.40
2023-01-26T22:21:51.484Z,3.27
2023-01-26T22:24:19.821Z,3.16
2023-01-26T22:26:48.318Z,3.06
2023-01-26T22:29:16.629Z,3.04
2023-01-26T22:31:44.734Z,3.58
2023-01-26T22:34:12.540Z,4.25
2023-01-26T22:36:41.231Z,4.75
2023-01-26T22:39:09.389Z,5.05
2023-01-26T22:41:37.961Z,5.26
2023-01-26T22:44:06.411Z,5.44
2023-01-26T22:46:35.333Z,5.61
2023-01-26T22:49:05.058Z,5.69
2023-01-26T22:51:37.525Z,5.30
2023-01-26T22:54:05.843Z,4.81
2023-01-26T22:56:34.171Z,4.42
2023-01-26T22:59:02.480Z,4.14
2023-01-26T23:01:32.926Z,3.92
2023-01-26T23:04:01.930Z,3.73
2023-01-26T23:06:29.904Z,3.56
2023-01-26T23:09:02.334Z,3.41
2023-01-26T23:11:31.089Z,3.27
2023-01-26T23:14:00.660Z,3.15
2023-01-26T23:16:29.382Z,3.03
2023-01-26T23:18:59.524Z,3.01
2023-01-26T23:21:28.710Z,3.53
2023-01-26T23:23:57.316Z,4.14
2023-01-26T23:26:25.592Z,4.56
2023-01-26T23:28:53.638Z,4.86
2023-01-26T23:31:22.241Z,5.11
2023-01-26T23:33:50.222Z,5.33
2023-01-26T23:36:18.059Z,5.52
2023-01-26T23:38:45.911Z,5.70
2023-01-26T23:41:14.006Z,5.79
2023-01-26T23:43:41.864Z,5.40
2023-01-26T23:46:11.107Z,4.90
2023-01-26T23:48:39.808Z,4.52
2023-01-26T23:51:10.803Z,4.23
2023-01-26T23:53:39.295Z,3.98
2023-01-26T23:56:10.375Z,3.76
2023-01-26T23:58:38.250Z,3.57
